This is the latest recevied weather packets stored in our database for station/object K7TSD. If no packets are shown the sender has not sent any weather packets the latest 10 day(s).
| Time | Temp. | Humidity | Pressure | Rain* | Wind** | Luminosity | Snow |
|---|---|---|---|---|---|---|---|
| 1777594506 | 10° C | 44% | 1017.6 hPa | 0 mm | - | 197 W/m² | - |
| 1777594203 | 10° C | 44% | 1017.9 hPa | 0 mm | - | 63 W/m² | - |
| 1777593898 | 9.44° C | 43% | 1017.6 hPa | 0 mm | - | 250 W/m² | - |
| 1777593595 | 10° C | 42% | 1017.6 hPa | 0 mm | - | 263 W/m² | - |
| 1777593290 | 10° C | 43% | 1017.6 hPa | 0 mm | - | 297 W/m² | - |
| 1777592986 | 10° C | 44% | 1017.4 hPa | 0 mm | - | 308 W/m² | - |
| 1777592680 | 10° C | 44% | 1017.4 hPa | 0 mm | - | 298 W/m² | - |
| 1777592375 | 10° C | 43% | 1017.5 hPa | 0 mm | - | 308 W/m² | - |
| 1777592066 | 10.56° C | 43% | 1017.4 hPa | 0 mm | - | 344 W/m² | - |
| 1777591764 | 10° C | 43% | 1017.2 hPa | 0 mm | - | 380 W/m² | - |
| 1777591458 | 10° C | 43% | 1017.5 hPa | 0 mm | - | 387 W/m² | - |
| 1777591155 | 10.56° C | 42% | 1017.3 hPa | 0 mm | - | 412 W/m² | - |
| 1777590849 | 10.56° C | 43% | 1017.4 hPa | 0 mm | - | 419 W/m² | - |
| 1777590546 | 10.56° C | 43% | 1017.4 hPa | 0 mm | - | 432 W/m² | - |
| 1777590242 | 10° C | 43% | 1017.4 hPa | 0 mm | - | 450 W/m² | - |
| 1777589940 | 10.56° C | 44% | 1017.4 hPa | 0 mm | - | 455 W/m² | - |
| 1777589636 | 10.56° C | 44% | 1017.6 hPa | 0 mm | - | 477 W/m² | - |
| 1777589332 | 10.56° C | 43% | 1017.6 hPa | 0 mm | - | 486 W/m² | - |
| 1777589025 | 10.56° C | 43% | 1017.6 hPa | 0 mm | - | 496 W/m² | - |
| 1777588721 | 10.56° C | 44% | 1017.3 hPa | 0 mm | - | 513 W/m² | - |
| 1777588416 | 11.11° C | 43% | 1017.6 hPa | 0 mm | - | 519 W/m² | - |
| 1777588112 | 10.56° C | 45% | 1017.3 hPa | 0 mm | - | 520 W/m² | - |
| 1777587808 | 10.56° C | 44% | 1017.5 hPa | 0 mm | - | 503 W/m² | - |
| 1777587508 | 10.56° C | 44% | 1017.3 hPa | 0 mm | - | 514 W/m² | - |
| 1777587204 | 10.56° C | 47% | 1017.4 hPa | 0 mm | - | 550 W/m² | - |
* Rain latest hour (hover to see other rain measurements)
** Current wind speed in m/s (hover to see current wind gust speed)